createdAt,value
2017-09-22T10:14:43.149Z,18.40
2017-09-22T10:17:10.154Z,17.70
2017-09-22T10:19:36.420Z,17.70
2017-09-22T10:22:03.445Z,17.80
2017-09-22T10:24:29.768Z,17.70
2017-09-22T10:26:56.038Z,17.80
2017-09-22T10:29:22.321Z,18.00
2017-09-22T10:31:48.601Z,18.20
2017-09-22T10:34:15.625Z,18.40
2017-09-22T10:36:41.905Z,18.30
2017-09-22T10:39:08.915Z,18.30
2017-09-22T10:41:35.949Z,18.50
2017-09-22T10:44:02.988Z,18.80
2017-09-22T10:46:29.261Z,18.80
2017-09-22T10:48:55.529Z,19.10
2017-09-22T10:51:21.827Z,19.20
2017-09-22T10:53:48.110Z,18.90
2017-09-22T10:56:14.366Z,19.20
2017-09-22T10:58:41.725Z,19.50
2017-09-22T11:01:07.985Z,19.60
2017-09-22T11:03:34.252Z,19.80
2017-09-22T11:06:00.542Z,19.60
2017-09-22T11:08:27.841Z,19.30
2017-09-22T11:10:54.853Z,19.50
2017-09-22T11:13:21.162Z,19.40
2017-09-22T11:15:47.463Z,19.80
2017-09-22T11:18:14.482Z,19.90
2017-09-22T11:20:40.777Z,19.90
2017-09-22T11:23:07.061Z,19.90
2017-09-22T11:25:34.069Z,19.60
2017-09-22T11:28:00.377Z,19.60
2017-09-22T11:30:26.679Z,19.30
2017-09-22T11:32:52.952Z,19.60
2017-09-22T11:35:19.232Z,19.70
2017-09-22T11:37:45.493Z,19.90
2017-09-22T11:40:11.770Z,20.10
2017-09-22T11:42:39.812Z,20.50
2017-09-22T11:45:06.091Z,20.50
2017-09-22T11:47:32.381Z,20.40
2017-09-22T11:49:58.681Z,20.20
2017-09-22T11:52:24.957Z,20.20
2017-09-22T11:54:51.974Z,20.50
2017-09-22T11:57:19.006Z,21.20
2017-09-22T11:59:45.269Z,21.20
2017-09-22T12:02:11.550Z,21.50
2017-09-22T12:04:37.854Z,21.20
2017-09-22T12:07:04.114Z,21.10
2017-09-22T12:09:30.381Z,21.50
2017-09-22T12:11:56.665Z,21.90
2017-09-22T12:14:22.943Z,22.00
2017-09-22T12:16:50.229Z,21.70
2017-09-22T12:19:16.504Z,21.50
2017-09-22T12:21:42.762Z,21.10
2017-09-22T12:24:09.769Z,20.90
2017-09-22T12:26:36.111Z,20.90
2017-09-22T12:29:02.376Z,21.40
2017-09-22T12:31:29.372Z,21.70
2017-09-22T12:33:55.652Z,21.70
2017-09-22T12:36:22.688Z,21.80
2017-09-22T12:38:49.694Z,22.10
2017-09-22T12:41:15.969Z,22.10
2017-09-22T12:43:42.980Z,22.60
2017-09-22T12:46:09.233Z,22.50
2017-09-22T12:48:36.297Z,23.90
2017-09-22T12:51:03.298Z,24.10
2017-09-22T12:53:29.557Z,24.00
2017-09-22T12:55:56.569Z,24.40
2017-09-22T12:58:22.822Z,24.40
2017-09-22T13:00:49.080Z,25.00
2017-09-22T13:03:15.365Z,25.80
2017-09-22T13:05:41.629Z,26.00
2017-09-22T13:08:09.687Z,26.20
2017-09-22T13:10:36.736Z,26.20
2017-09-22T13:13:03.758Z,26.40
2017-09-22T13:15:30.034Z,26.40
2017-09-22T13:17:56.338Z,26.10
2017-09-22T13:20:23.354Z,27.20
2017-09-22T13:22:49.637Z,27.20
2017-09-22T13:25:15.925Z,27.50
2017-09-22T13:27:42.192Z,27.00
2017-09-22T13:30:08.492Z,26.40
2017-09-22T13:32:36.413Z,27.30
2017-09-22T13:35:02.675Z,27.30
2017-09-22T13:37:30.625Z,27.00
2017-09-22T13:39:56.906Z,26.60
2017-09-22T13:42:23.901Z,25.80
2017-09-22T13:44:50.161Z,25.80
2017-09-22T13:47:16.436Z,25.80
2017-09-22T13:49:42.697Z,26.30
2017-09-22T13:52:08.953Z,25.80
2017-09-22T13:54:36.008Z,24.30
2017-09-22T13:57:03.005Z,24.10
2017-09-22T13:59:30.289Z,24.00
2017-09-22T14:01:56.569Z,24.00
2017-09-22T14:04:22.838Z,24.10
2017-09-22T14:06:49.107Z,24.80
2017-09-22T14:09:15.381Z,25.50
2017-09-22T14:11:41.653Z,25.80
2017-09-22T14:14:08.664Z,27.00
2017-09-22T14:16:34.965Z,26.90
2017-09-22T14:19:01.256Z,28.10
2017-09-22T14:21:28.249Z,29.70
2017-09-22T14:23:54.521Z,29.60
2017-09-22T14:26:21.517Z,30.40
2017-09-22T14:28:47.772Z,30.40
2017-09-22T14:31:14.064Z,30.00
2017-09-22T14:33:40.344Z,28.70
2017-09-22T14:36:06.642Z,28.80
2017-09-22T14:38:32.940Z,29.40
2017-09-22T14:40:59.204Z,29.90
2017-09-22T14:43:25.456Z,30.20
2017-09-22T14:45:51.725Z,29.70
2017-09-22T14:48:17.986Z,29.50
2017-09-22T14:50:44.236Z,29.60
2017-09-22T14:53:10.524Z,29.50
2017-09-22T14:55:36.789Z,29.70
2017-09-22T14:58:03.045Z,29.90
2017-09-22T15:00:30.069Z,30.70
2017-09-22T15:02:56.329Z,30.70
2017-09-22T15:05:23.333Z,30.30
2017-09-22T15:07:50.620Z,30.30
2017-09-22T15:10:17.608Z,30.40
2017-09-22T15:12:43.869Z,30.40
2017-09-22T15:15:10.151Z,30.30
2017-09-22T15:17:36.414Z,29.80
2017-09-22T15:20:02.693Z,29.90
2017-09-22T15:22:28.980Z,30.20
2017-09-22T15:24:55.245Z,30.70
2017-09-22T15:27:22.250Z,31.30
2017-09-22T15:29:48.543Z,31.30
2017-09-22T15:32:14.796Z,31.00
2017-09-22T15:34:41.045Z,30.90
2017-09-22T15:37:07.330Z,30.70
2017-09-22T15:39:33.596Z,30.90
2017-09-22T15:41:59.867Z,30.30
2017-09-22T15:44:26.152Z,30.00
2017-09-22T15:46:52.426Z,29.70
2017-09-22T15:49:18.683Z,29.20
2017-09-22T15:51:44.961Z,28.90
2017-09-22T15:54:11.222Z,28.10
2017-09-22T15:56:37.485Z,28.10
2017-09-22T15:59:03.781Z,27.90
2017-09-22T16:01:30.055Z,27.60
2017-09-22T16:03:56.314Z,27.60
2017-09-22T16:06:22.585Z,26.90
2017-09-22T16:08:48.841Z,25.80
2017-09-22T16:11:15.093Z,24.90
2017-09-22T16:13:42.137Z,22.70
2017-09-22T16:16:09.166Z,22.10
2017-09-22T16:18:35.438Z,22.00
2017-09-22T16:21:01.716Z,22.00
2017-09-22T16:23:27.998Z,21.50
2017-09-22T16:25:54.282Z,21.00
2017-09-22T16:28:20.581Z,20.50
2017-09-22T16:30:46.861Z,19.80
2017-09-22T16:33:13.853Z,19.70
2017-09-22T16:35:41.156Z,19.70
2017-09-22T16:38:08.153Z,19.50
2017-09-22T16:40:34.401Z,19.50
2017-09-22T16:43:00.680Z,19.50
2017-09-22T16:45:26.947Z,19.30
2017-09-22T16:47:53.200Z,18.90
2017-09-22T16:50:19.484Z,18.60
2017-09-22T16:52:45.737Z,18.30
2017-09-22T16:55:12.003Z,17.90
2017-09-22T16:57:39.037Z,17.00
2017-09-22T17:00:05.301Z,16.90
2017-09-22T17:02:31.560Z,16.70
2017-09-22T17:04:57.845Z,16.30
2017-09-22T17:07:24.853Z,15.70
2017-09-22T17:09:51.121Z,15.60
2017-09-22T17:12:18.142Z,15.50
2017-09-22T17:14:44.413Z,15.40
2017-09-22T17:17:10.679Z,15.40
2017-09-22T17:19:37.973Z,15.30
2017-09-22T17:22:05.001Z,14.90
2017-09-22T17:24:31.269Z,14.90
2017-09-22T17:26:57.550Z,14.70
2017-09-22T17:29:23.821Z,14.60
2017-09-22T17:31:50.097Z,14.40
2017-09-22T17:34:16.374Z,14.30
2017-09-22T17:36:42.643Z,14.10
2017-09-22T17:39:08.905Z,13.90
2017-09-22T17:41:35.205Z,13.60
2017-09-22T17:44:01.480Z,13.50
2017-09-22T17:46:28.484Z,13.20
2017-09-22T17:48:56.407Z,13.10
2017-09-22T17:51:22.864Z,12.90
2017-09-22T17:53:50.438Z,12.60
2017-09-22T17:56:16.717Z,12.60
2017-09-22T17:58:43.727Z,12.50
2017-09-22T18:01:11.001Z,12.50
2017-09-22T18:03:38.024Z,12.60
2017-09-22T18:06:04.305Z,12.60
2017-09-22T18:08:30.598Z,12.60
2017-09-22T18:10:56.905Z,12.70
2017-09-22T18:13:23.169Z,12.70
2017-09-22T18:15:50.177Z,12.50
2017-09-22T18:18:16.491Z,12.50
2017-09-22T18:20:42.788Z,12.40
2017-09-22T18:23:09.801Z,12.20
2017-09-22T18:25:36.100Z,12.20
2017-09-22T18:28:02.372Z,12.30
2017-09-22T18:30:29.396Z,12.20
2017-09-22T18:32:55.673Z,12.10
2017-09-22T18:35:21.930Z,12.00
2017-09-22T18:37:48.194Z,12.00
2017-09-22T18:40:14.464Z,11.80
2017-09-22T18:42:40.741Z,11.70
2017-09-22T18:45:07.050Z,11.60
2017-09-22T18:47:33.341Z,11.60
2017-09-22T18:49:59.658Z,11.50
2017-09-22T18:52:26.673Z,11.50
2017-09-22T18:54:53.953Z,11.50
2017-09-22T18:57:20.973Z,11.40
2017-09-22T18:59:47.252Z,11.40
2017-09-22T19:02:13.529Z,11.20
2017-09-22T19:04:39.796Z,11.10
2017-09-22T19:07:06.801Z,11.10
2017-09-22T19:09:33.105Z,11.10
2017-09-22T19:11:59.368Z,11.10
2017-09-22T19:14:25.646Z,11.00
2017-09-22T19:16:51.938Z,11.10
2017-09-22T19:19:18.185Z,11.00
2017-09-22T19:21:44.474Z,11.00
2017-09-22T19:24:10.776Z,11.00
2017-09-22T19:26:37.670Z,11.10
2017-09-22T19:29:03.930Z,11.00
2017-09-22T19:31:30.270Z,10.90
2017-09-22T19:33:56.574Z,10.90
2017-09-22T19:36:24.605Z,10.90
2017-09-22T19:38:50.901Z,10.90
2017-09-22T19:41:17.176Z,10.90
2017-09-22T19:43:43.501Z,10.90
2017-09-22T19:46:09.797Z,10.80
2017-09-22T19:48:36.107Z,10.80
2017-09-22T19:51:02.368Z,10.70
2017-09-22T19:53:28.646Z,10.70
2017-09-22T19:55:55.653Z,10.70
2017-09-22T19:58:21.962Z,10.70
2017-09-22T20:00:48.238Z,10.70
2017-09-22T20:03:14.529Z,10.70
2017-09-22T20:05:40.797Z,10.80
2017-09-22T20:08:07.076Z,10.80
2017-09-22T20:10:33.361Z,10.80
2017-09-22T20:13:00.366Z,10.90
2017-09-22T20:15:26.674Z,10.90
2017-09-22T20:17:52.949Z,10.80
2017-09-22T20:20:19.221Z,10.80
2017-09-22T20:22:45.525Z,10.80
2017-09-22T20:25:13.545Z,10.90
2017-09-22T20:27:40.835Z,10.80
2017-09-22T20:30:07.869Z,10.80
2017-09-22T20:32:34.146Z,10.80
2017-09-22T20:35:00.418Z,10.90
2017-09-22T20:37:26.701Z,10.80
2017-09-22T20:39:52.965Z,10.80
2017-09-22T20:42:19.220Z,10.80
2017-09-22T20:44:45.505Z,10.80
2017-09-22T20:47:11.782Z,10.80
2017-09-22T20:49:38.792Z,10.70
2017-09-22T20:52:05.082Z,10.60
2017-09-22T20:54:31.345Z,10.70
2017-09-22T20:56:57.613Z,10.60
2017-09-22T20:59:23.897Z,10.60
2017-09-22T21:01:50.157Z,10.60
2017-09-22T21:04:16.430Z,10.50
2017-09-22T21:06:42.726Z,10.40
2017-09-22T21:09:08.997Z,10.40
2017-09-22T21:11:35.274Z,10.50
2017-09-22T21:14:01.568Z,10.50
2017-09-22T21:16:27.834Z,10.60
2017-09-22T21:18:54.104Z,10.60
2017-09-22T21:21:20.397Z,10.60
2017-09-22T21:23:46.662Z,10.60
2017-09-22T21:26:12.924Z,10.60
2017-09-22T21:28:39.216Z,10.60
2017-09-22T21:31:05.493Z,10.60
2017-09-22T21:33:31.773Z,10.60
2017-09-22T21:35:58.059Z,10.60
2017-09-22T21:38:24.345Z,10.60
2017-09-22T21:40:50.620Z,10.60
2017-09-22T21:43:16.909Z,10.60
2017-09-22T21:45:43.180Z,10.60
2017-09-22T21:48:09.474Z,10.60
2017-09-22T21:50:35.788Z,10.50
2017-09-22T21:53:02.816Z,10.50
2017-09-22T21:55:29.834Z,10.50
2017-09-22T21:57:56.129Z,10.40
2017-09-22T22:00:22.393Z,10.40
2017-09-22T22:02:48.685Z,10.40
2017-09-22T22:05:21.033Z,10.30
2017-09-22T22:07:47.294Z,10.40
2017-09-22T22:10:13.557Z,10.40
2017-09-22T22:12:39.851Z,10.40
2017-09-22T22:15:06.153Z,10.50
2017-09-22T22:17:32.421Z,10.50
2017-09-22T22:19:58.705Z,10.60
2017-09-22T22:22:24.975Z,10.50
2017-09-22T22:24:51.237Z,10.50
2017-09-22T22:27:18.269Z,10.50
2017-09-22T22:29:44.525Z,10.50
2017-09-22T22:32:11.554Z,10.50
2017-09-22T22:34:38.586Z,10.60
2017-09-22T22:37:04.895Z,10.50
2017-09-22T22:39:31.184Z,10.50
2017-09-22T22:41:57.478Z,10.60
2017-09-22T22:44:23.745Z,10.60
2017-09-22T22:46:50.017Z,10.60
2017-09-22T22:49:16.423Z,10.60
2017-09-22T22:51:42.729Z,10.60
2017-09-22T22:54:09.003Z,10.50
2017-09-22T22:56:35.300Z,10.60
2017-09-22T22:59:01.573Z,10.50
2017-09-22T23:01:27.866Z,10.50
2017-09-22T23:03:54.168Z,10.50
2017-09-22T23:06:20.439Z,10.40
2017-09-22T23:08:46.719Z,10.40
2017-09-22T23:11:13.765Z,10.40
2017-09-22T23:13:40.785Z,10.40
2017-09-22T23:16:08.060Z,10.40
2017-09-22T23:18:35.126Z,10.40
2017-09-22T23:21:01.397Z,10.30
2017-09-22T23:23:27.673Z,10.40
2017-09-22T23:25:54.741Z,10.40
2017-09-22T23:28:21.020Z,10.40
2017-09-22T23:30:47.281Z,10.40
2017-09-22T23:33:14.310Z,10.30
2017-09-22T23:35:40.582Z,10.30
2017-09-22T23:38:06.882Z,10.30
2017-09-22T23:40:33.929Z,10.30
2017-09-22T23:43:00.943Z,10.30
2017-09-22T23:45:27.221Z,10.30
2017-09-22T23:47:53.514Z,10.30
2017-09-22T23:50:19.777Z,10.30
2017-09-22T23:52:46.066Z,10.30
2017-09-22T23:55:12.365Z,10.30
2017-09-22T23:57:38.658Z,10.20
